sensor_id;sensor_type;location;lat;lon;timestamp;pressure;altitude;pressure_sealevel;temperature
27826;BMP280;15077;49.704;9.908;2023-08-06T00:00:23;97388.09;;;21.82
27826;BMP280;15077;49.704;9.908;2023-08-06T00:02:49;97393.03;;;21.76
27826;BMP280;15077;49.704;9.908;2023-08-06T00:05:18;97381.53;;;21.70
27826;BMP280;15077;49.704;9.908;2023-08-06T00:07:47;97384.69;;;21.64
27826;BMP280;15077;49.704;9.908;2023-08-06T00:10:13;97373.97;;;21.59
27826;BMP280;15077;49.704;9.908;2023-08-06T00:12:39;97376.56;;;21.59
27826;BMP280;15077;49.704;9.908;2023-08-06T00:15:06;97369.81;;;21.58
27826;BMP280;15077;49.704;9.908;2023-08-06T00:17:33;97363.81;;;21.58
27826;BMP280;15077;49.704;9.908;2023-08-06T00:19:59;97353.50;;;21.58
27826;BMP280;15077;49.704;9.908;2023-08-06T00:22:34;97354.34;;;21.58
27826;BMP280;15077;49.704;9.908;2023-08-06T00:25:00;97364.66;;;21.58
27826;BMP280;15077;49.704;9.908;2023-08-06T00:27:26;97358.81;;;21.56
27826;BMP280;15077;49.704;9.908;2023-08-06T00:29:52;97353.16;;;21.53
27826;BMP280;15077;49.704;9.908;2023-08-06T00:32:18;97356.81;;;21.50
27826;BMP280;15077;49.704;9.908;2023-08-06T00:34:43;97352.78;;;21.48
27826;BMP280;15077;49.704;9.908;2023-08-06T00:37:09;97347.06;;;21.44
27826;BMP280;15077;49.704;9.908;2023-08-06T00:39:35;97346.41;;;21.42
27826;BMP280;15077;49.704;9.908;2023-08-06T00:42:01;97346.69;;;21.40
27826;BMP280;15077;49.704;9.908;2023-08-06T00:44:27;97345.34;;;21.36
27826;BMP280;15077;49.704;9.908;2023-08-06T00:46:53;97346.63;;;21.32
27826;BMP280;15077;49.704;9.908;2023-08-06T00:49:19;97346.31;;;21.35
27826;BMP280;15077;49.704;9.908;2023-08-06T00:51:45;97339.84;;;21.31
27826;BMP280;15077;49.704;9.908;2023-08-06T00:54:11;97329.81;;;21.28
27826;BMP280;15077;49.704;9.908;2023-08-06T00:56:38;97326.59;;;21.26
27826;BMP280;15077;49.704;9.908;2023-08-06T00:59:06;97324.28;;;21.23
27826;BMP280;15077;49.704;9.908;2023-08-06T01:01:32;97326.47;;;21.18
27826;BMP280;15077;49.704;9.908;2023-08-06T01:04:00;97315.66;;;21.14
27826;BMP280;15077;49.704;9.908;2023-08-06T01:06:48;97314.97;;;21.12
27826;BMP280;15077;49.704;9.908;2023-08-06T01:13:10;97312.59;;;21.01
27826;BMP280;15077;49.704;9.908;2023-08-06T01:15:46;97310.53;;;21.05
27826;BMP280;15077;49.704;9.908;2023-08-06T01:18:15;97302.81;;;21.05
27826;BMP280;15077;49.704;9.908;2023-08-06T01:20:41;97306.06;;;21.07
27826;BMP280;15077;49.704;9.908;2023-08-06T01:23:07;97300.91;;;21.07
27826;BMP280;15077;49.704;9.908;2023-08-06T01:26:07;97299.06;;;20.99
27826;BMP280;15077;49.704;9.908;2023-08-06T01:28:54;97297.44;;;20.98
27826;BMP280;15077;49.704;9.908;2023-08-06T01:31:48;97291.78;;;20.95
27826;BMP280;15077;49.704;9.908;2023-08-06T01:34:21;97292.28;;;20.98
27826;BMP280;15077;49.704;9.908;2023-08-06T01:36:47;97283.47;;;21.01
27826;BMP280;15077;49.704;9.908;2023-08-06T01:39:13;97287.66;;;21.02
27826;BMP280;15077;49.704;9.908;2023-08-06T01:41:39;97275.75;;;21.01
27826;BMP280;15077;49.704;9.908;2023-08-06T01:44:05;97279.91;;;21.02
27826;BMP280;15077;49.704;9.908;2023-08-06T01:46:31;97272.47;;;20.99
27826;BMP280;15077;49.704;9.908;2023-08-06T01:48:57;97278.59;;;20.98
27826;BMP280;15077;49.704;9.908;2023-08-06T01:51:26;97279.56;;;20.97
27826;BMP280;15077;49.704;9.908;2023-08-06T01:53:52;97273.75;;;20.95
27826;BMP280;15077;49.704;9.908;2023-08-06T01:56:18;97266.97;;;20.94
27826;BMP280;15077;49.704;9.908;2023-08-06T01:58:44;97273.06;;;20.93
27826;BMP280;15077;49.704;9.908;2023-08-06T02:01:10;97274.97;;;20.91
27826;BMP280;15077;49.704;9.908;2023-08-06T02:03:36;97266.59;;;20.89
27826;BMP280;15077;49.704;9.908;2023-08-06T02:06:02;97260.63;;;20.89
27826;BMP280;15077;49.704;9.908;2023-08-06T02:08:28;97260.63;;;20.89
27826;BMP280;15077;49.704;9.908;2023-08-06T02:10:54;97257.25;;;20.88
27826;BMP280;15077;49.704;9.908;2023-08-06T02:13:20;97256.59;;;20.86
27826;BMP280;15077;49.704;9.908;2023-08-06T02:15:46;97254.94;;;20.85
27826;BMP280;15077;49.704;9.908;2023-08-06T02:18:15;97250.75;;;20.84
27826;BMP280;15077;49.704;9.908;2023-08-06T02:20:42;97244.13;;;20.82
27826;BMP280;15077;49.704;9.908;2023-08-06T02:23:08;97234.13;;;20.79
27826;BMP280;15077;49.704;9.908;2023-08-06T02:25:35;97237.78;;;20.76
27826;BMP280;15077;49.704;9.908;2023-08-06T02:28:01;97233.22;;;20.70
27826;BMP280;15077;49.704;9.908;2023-08-06T02:30:27;97229.28;;;20.66
27826;BMP280;15077;49.704;9.908;2023-08-06T02:32:53;97239.19;;;20.61
27826;BMP280;15077;49.704;9.908;2023-08-06T02:35:19;97228.78;;;20.53
27826;BMP280;15077;49.704;9.908;2023-08-06T02:37:45;97241.28;;;20.48
27826;BMP280;15077;49.704;9.908;2023-08-06T02:40:10;97234.00;;;20.44
27826;BMP280;15077;49.704;9.908;2023-08-06T02:42:36;97228.34;;;20.41
27826;BMP280;15077;49.704;9.908;2023-08-06T02:45:03;97230.22;;;20.39
27826;BMP280;15077;49.704;9.908;2023-08-06T02:47:29;97231.03;;;20.39
27826;BMP280;15077;49.704;9.908;2023-08-06T02:49:55;97233.63;;;20.39
27826;BMP280;15077;49.704;9.908;2023-08-06T02:52:20;97226.69;;;20.40
27826;BMP280;15077;49.704;9.908;2023-08-06T02:54:46;97214.78;;;20.39
27826;BMP280;15077;49.704;9.908;2023-08-06T02:57:12;97219.13;;;20.38
27826;BMP280;15077;49.704;9.908;2023-08-06T02:59:38;97210.75;;;20.36
27826;BMP280;15077;49.704;9.908;2023-08-06T03:02:05;97209.91;;;20.36
27826;BMP280;15077;49.704;9.908;2023-08-06T03:04:30;97203.97;;;20.35
27826;BMP280;15077;49.704;9.908;2023-08-06T03:06:56;97205.88;;;20.33
27826;BMP280;15077;49.704;9.908;2023-08-06T03:09:23;97198.97;;;20.34
27826;BMP280;15077;49.704;9.908;2023-08-06T03:11:49;97202.34;;;20.34
27826;BMP280;15077;49.704;9.908;2023-08-06T03:14:17;97198.81;;;20.35
27826;BMP280;15077;49.704;9.908;2023-08-06T03:16:42;97197.19;;;20.34
27826;BMP280;15077;49.704;9.908;2023-08-06T03:19:08;97198.03;;;20.35
27826;BMP280;15077;49.704;9.908;2023-08-06T03:21:34;97192.88;;;20.35
27826;BMP280;15077;49.704;9.908;2023-08-06T03:24:00;97190.31;;;20.35
27826;BMP280;15077;49.704;9.908;2023-08-06T03:26:26;97187.72;;;20.35
27826;BMP280;15077;49.704;9.908;2023-08-06T03:28:51;97192.03;;;20.34
27826;BMP280;15077;49.704;9.908;2023-08-06T03:31:17;97184.19;;;20.36
27826;BMP280;15077;49.704;9.908;2023-08-06T03:33:43;97188.53;;;20.35
27826;BMP280;15077;49.704;9.908;2023-08-06T03:36:09;97180.00;;;20.35
27826;BMP280;15077;49.704;9.908;2023-08-06T03:38:34;97175.81;;;20.34
27826;BMP280;15077;49.704;9.908;2023-08-06T03:41:00;97173.09;;;20.35
27826;BMP280;15077;49.704;9.908;2023-08-06T03:43:26;97172.28;;;20.35
27826;BMP280;15077;49.704;9.908;2023-08-06T03:45:52;97169.84;;;20.33
27826;BMP280;15077;49.704;9.908;2023-08-06T03:48:17;97175.00;;;20.33
27826;BMP280;15077;49.704;9.908;2023-08-06T03:50:43;97166.59;;;20.31
27826;BMP280;15077;49.704;9.908;2023-08-06T03:53:09;97166.09;;;20.28
27826;BMP280;15077;49.704;9.908;2023-08-06T03:55:35;97164.75;;;20.24
27826;BMP280;15077;49.704;9.908;2023-08-06T03:58:01;97162.44;;;20.21
27826;BMP280;15077;49.704;9.908;2023-08-06T04:00:27;97166.78;;;20.20
27826;BMP280;15077;49.704;9.908;2023-08-06T04:02:52;97156.09;;;20.15
27826;BMP280;15077;49.704;9.908;2023-08-06T04:05:18;97160.72;;;20.12
27826;BMP280;15077;49.704;9.908;2023-08-06T04:07:44;97165.38;;;20.08
27826;BMP280;15077;49.704;9.908;2023-08-06T04:10:10;97167.53;;;20.03
27826;BMP280;15077;49.704;9.908;2023-08-06T04:12:36;97167.66;;;20.02
27826;BMP280;15077;49.704;9.908;2023-08-06T04:15:04;97168.66;;;20.01
27826;BMP280;15077;49.704;9.908;2023-08-06T04:17:30;97169.72;;;19.98
27826;BMP280;15077;49.704;9.908;2023-08-06T04:19:56;97167.28;;;19.97
27826;BMP280;15077;49.704;9.908;2023-08-06T04:22:24;97168.94;;;19.98
27826;BMP280;15077;49.704;9.908;2023-08-06T04:24:50;97168.09;;;19.97
27826;BMP280;15077;49.704;9.908;2023-08-06T04:27:18;97162.16;;;19.97
27826;BMP280;15077;49.704;9.908;2023-08-06T04:29:44;97162.16;;;19.97
27826;BMP280;15077;49.704;9.908;2023-08-06T04:32:10;97169.59;;;20.00
27826;BMP280;15077;49.704;9.908;2023-08-06T04:34:36;97159.16;;;20.01
27826;BMP280;15077;49.704;9.908;2023-08-06T04:37:03;97161.97;;;20.08
27826;BMP280;15077;49.704;9.908;2023-08-06T04:39:30;97152.34;;;20.10
27826;BMP280;15077;49.704;9.908;2023-08-06T04:41:59;97158.44;;;20.09
27826;BMP280;15077;49.704;9.908;2023-08-06T04:44:25;97151.53;;;20.09
27826;BMP280;15077;49.704;9.908;2023-08-06T04:46:51;97148.97;;;20.09
27826;BMP280;15077;49.704;9.908;2023-08-06T04:49:19;97153.16;;;20.10
27826;BMP280;15077;49.704;9.908;2023-08-06T04:51:45;97150.44;;;20.12
27826;BMP280;15077;49.704;9.908;2023-08-06T04:54:11;97147.88;;;20.12
27826;BMP280;15077;49.704;9.908;2023-08-06T04:56:37;97141.78;;;20.13
27826;BMP280;15077;49.704;9.908;2023-08-06T04:59:02;97129.06;;;20.11
27826;BMP280;15077;49.704;9.908;2023-08-06T05:01:28;97142.88;;;20.10
27826;BMP280;15077;49.704;9.908;2023-08-06T05:03:54;97140.44;;;20.09
27826;BMP280;15077;49.704;9.908;2023-08-06T05:06:20;97143.16;;;20.07
27826;BMP280;15077;49.704;9.908;2023-08-06T05:08:45;97151.00;;;20.06
27826;BMP280;15077;49.704;9.908;2023-08-06T05:11:11;97146.94;;;20.03
27826;BMP280;15077;49.704;9.908;2023-08-06T05:13:37;97152.25;;;20.02
27826;BMP280;15077;49.704;9.908;2023-08-06T05:16:03;97145.63;;;19.99
27826;BMP280;15077;49.704;9.908;2023-08-06T05:18:28;97148.50;;;19.97
27826;BMP280;15077;49.704;9.908;2023-08-06T05:20:56;97152.81;;;19.96
27826;BMP280;15077;49.704;9.908;2023-08-06T05:23:21;97143.50;;;19.95
27826;BMP280;15077;49.704;9.908;2023-08-06T05:25:47;97155.38;;;19.96
27826;BMP280;15077;49.704;9.908;2023-08-06T05:28:13;97150.09;;;19.97
27826;BMP280;15077;49.704;9.908;2023-08-06T05:30:42;97150.94;;;19.98
27826;BMP280;15077;49.704;9.908;2023-08-06T05:33:08;97157.66;;;19.99
27826;BMP280;15077;49.704;9.908;2023-08-06T05:35:34;97151.59;;;20.00
27826;BMP280;15077;49.704;9.908;2023-08-06T05:37:59;97144.81;;;19.99
27826;BMP280;15077;49.704;9.908;2023-08-06T05:40:25;97141.28;;;20.00
27826;BMP280;15077;49.704;9.908;2023-08-06T05:42:57;97141.28;;;20.00
27826;BMP280;15077;49.704;9.908;2023-08-06T05:45:22;97137.22;;;19.97
27826;BMP280;15077;49.704;9.908;2023-08-06T05:47:48;97138.34;;;19.95
27826;BMP280;15077;49.704;9.908;2023-08-06T05:50:14;97135.78;;;19.95
27826;BMP280;15077;49.704;9.908;2023-08-06T05:52:40;97136.72;;;19.94
27826;BMP280;15077;49.704;9.908;2023-08-06T05:55:07;97136.72;;;19.94
27826;BMP280;15077;49.704;9.908;2023-08-06T05:58:25;97145.94;;;19.87
27826;BMP280;15077;49.704;9.908;2023-08-06T06:00:54;97146.50;;;19.91
27826;BMP280;15077;49.704;9.908;2023-08-06T06:03:20;97159.22;;;19.92
27826;BMP280;15077;49.704;9.908;2023-08-06T06:08:40;97148.91;;;19.92
27826;BMP280;15077;49.704;9.908;2023-08-06T06:11:05;97153.09;;;19.93
27826;BMP280;15077;49.704;9.908;2023-08-06T06:13:31;97148.50;;;19.97
27826;BMP280;15077;49.704;9.908;2023-08-06T06:15:58;97147.38;;;19.99
27826;BMP280;15077;49.704;9.908;2023-08-06T06:18:24;97153.06;;;20.02
27826;BMP280;15077;49.704;9.908;2023-08-06T06:20:49;97153.88;;;20.03
27826;BMP280;15077;49.704;9.908;2023-08-06T06:23:15;97151.16;;;20.04
27826;BMP280;15077;49.704;9.908;2023-08-06T06:25:49;97156.44;;;20.03
27826;BMP280;15077;49.704;9.908;2023-08-06T06:28:18;97160.25;;;19.99
27826;BMP280;15077;49.704;9.908;2023-08-06T06:30:44;97155.38;;;19.96
27826;BMP280;15077;49.704;9.908;2023-08-06T06:33:10;97155.66;;;19.93
27826;BMP280;15077;49.704;9.908;2023-08-06T06:35:36;97161.09;;;19.90
27826;BMP280;15077;49.704;9.908;2023-08-06T06:38:02;97156.22;;;19.87
27826;BMP280;15077;49.704;9.908;2023-08-06T06:40:28;97161.63;;;19.84
27826;BMP280;15077;49.704;9.908;2023-08-06T06:42:53;97156.75;;;19.81
27826;BMP280;15077;49.704;9.908;2023-08-06T06:45:20;97160.25;;;19.80
27826;BMP280;15077;49.704;9.908;2023-08-06T06:47:45;97168.94;;;19.79
27826;BMP280;15077;49.704;9.908;2023-08-06T06:50:11;97165.41;;;19.80
27826;BMP280;15077;49.704;9.908;2023-08-06T06:52:37;97171.38;;;19.81
27826;BMP280;15077;49.704;9.908;2023-08-06T06:55:04;97167.88;;;19.82
27826;BMP280;15077;49.704;9.908;2023-08-06T06:57:29;97169.59;;;19.81
27826;BMP280;15077;49.704;9.908;2023-08-06T06:59:55;97165.41;;;19.80
27826;BMP280;15077;49.704;9.908;2023-08-06T07:02:21;97158.66;;;19.79
27826;BMP280;15077;49.704;9.908;2023-08-06T07:04:47;97159.47;;;19.80
27826;BMP280;15077;49.704;9.908;2023-08-06T07:07:13;97149.97;;;19.80
27826;BMP280;15077;49.704;9.908;2023-08-06T07:09:38;97158.66;;;19.79
27826;BMP280;15077;49.704;9.908;2023-08-06T07:12:05;97162.97;;;19.79
27826;BMP280;15077;49.704;9.908;2023-08-06T07:14:31;97160.41;;;19.79
27826;BMP280;15077;49.704;9.908;2023-08-06T07:16:56;97169.09;;;19.78
27826;BMP280;15077;49.704;9.908;2023-08-06T07:19:23;97179.25;;;19.79
27826;BMP280;15077;49.704;9.908;2023-08-06T07:21:48;97165.69;;;19.77
27826;BMP280;15077;49.704;9.908;2023-08-06T07:24:14;97165.56;;;19.79
27826;BMP280;15077;49.704;9.908;2023-08-06T07:26:40;97165.41;;;19.80
27826;BMP280;15077;49.704;9.908;2023-08-06T07:29:06;97161.09;;;19.81
27826;BMP280;15077;49.704;9.908;2023-08-06T07:31:32;97164.75;;;19.78
27826;BMP280;15077;49.704;9.908;2023-08-06T07:33:57;97165.41;;;19.80
27826;BMP280;15077;49.704;9.908;2023-08-06T07:36:23;97163.53;;;19.82
27826;BMP280;15077;49.704;9.908;2023-08-06T07:38:49;97166.75;;;19.84
27826;BMP280;15077;49.704;9.908;2023-08-06T07:41:22;97164.19;;;19.84
27826;BMP280;15077;49.704;9.908;2023-08-06T07:43:48;97161.38;;;19.87
27826;BMP280;15077;49.704;9.908;2023-08-06T07:46:14;97156.09;;;19.89
27826;BMP280;15077;49.704;9.908;2023-08-06T07:48:39;97158.66;;;19.89
27826;BMP280;15077;49.704;9.908;2023-08-06T07:51:05;97165.56;;;19.88
27826;BMP280;15077;49.704;9.908;2023-08-06T07:53:31;97151.09;;;19.87
27826;BMP280;15077;49.704;9.908;2023-08-06T07:55:57;97151.19;;;19.86
27826;BMP280;15077;49.704;9.908;2023-08-06T07:58:36;97155.53;;;19.85
27826;BMP280;15077;49.704;9.908;2023-08-06T08:01:01;97155.41;;;19.87
27826;BMP280;15077;49.704;9.908;2023-08-06T08:03:27;97152.16;;;19.85
27826;BMP280;15077;49.704;9.908;2023-08-06T08:05:55;97153.09;;;19.84
27826;BMP280;15077;49.704;9.908;2023-08-06T08:08:24;97154.88;;;19.83
27826;BMP280;15077;49.704;9.908;2023-08-06T08:10:50;97155.66;;;19.84
27826;BMP280;15077;49.704;9.908;2023-08-06T08:13:16;97152.97;;;19.85
27826;BMP280;15077;49.704;9.908;2023-08-06T08:15:41;97158.09;;;19.85
27826;BMP280;15077;49.704;9.908;2023-08-06T08:18:07;97147.16;;;19.83
27826;BMP280;15077;49.704;9.908;2023-08-06T08:20:33;97161.63;;;19.84
27826;BMP280;15077;49.704;9.908;2023-08-06T08:23:02;97148.09;;;19.82
27826;BMP280;15077;49.704;9.908;2023-08-06T08:25:29;97153.09;;;19.84
27826;BMP280;15077;49.704;9.908;2023-08-06T08:27:55;97150.28;;;19.87
27826;BMP280;15077;49.704;9.908;2023-08-06T08:30:22;97156.22;;;19.87
27826;BMP280;15077;49.704;9.908;2023-08-06T08:32:48;97151.09;;;19.87
27826;BMP280;15077;49.704;9.908;2023-08-06T08:35:14;97152.72;;;19.88
27826;BMP280;15077;49.704;9.908;2023-08-06T08:37:42;97145.66;;;19.90
27826;BMP280;15077;49.704;9.908;2023-08-06T08:40:09;97146.63;;;19.89
27826;BMP280;15077;49.704;9.908;2023-08-06T08:42:36;97137.81;;;19.92
27826;BMP280;15077;49.704;9.908;2023-08-06T08:45:04;97145.22;;;19.95
27826;BMP280;15077;49.704;9.908;2023-08-06T08:47:32;97139.94;;;19.96
27826;BMP280;15077;49.704;9.908;2023-08-06T08:49:59;97148.22;;;19.99
27826;BMP280;15077;49.704;9.908;2023-08-06T08:52:27;97144.53;;;20.02
27826;BMP280;15077;49.704;9.908;2023-08-06T08:54:56;97147.78;;;20.04
27826;BMP280;15077;49.704;9.908;2023-08-06T08:57:22;97144.25;;;20.05
27826;BMP280;15077;49.704;9.908;2023-08-06T08:59:47;97152.34;;;20.10
27826;BMP280;15077;49.704;9.908;2023-08-06T09:02:15;97146.25;;;20.11
27826;BMP280;15077;49.704;9.908;2023-08-06T09:04:42;97151.94;;;20.14
27826;BMP280;15077;49.704;9.908;2023-08-06T09:07:13;97147.44;;;20.16
27826;BMP280;15077;49.704;9.908;2023-08-06T09:09:42;97157.31;;;20.21
27826;BMP280;15077;49.704;9.908;2023-08-06T09:12:15;97142.66;;;20.21
27826;BMP280;15077;49.704;9.908;2023-08-06T09:14:41;97160.50;;;20.05
27826;BMP280;15077;49.704;9.908;2023-08-06T09:17:08;97159.22;;;20.19
27826;BMP280;15077;49.704;9.908;2023-08-06T09:19:36;97154.72;;;20.21
27826;BMP280;15077;49.704;9.908;2023-08-06T09:22:02;97154.44;;;20.24
27826;BMP280;15077;49.704;9.908;2023-08-06T09:24:28;97155.25;;;20.24
27826;BMP280;15077;49.704;9.908;2023-08-06T09:26:54;97160.25;;;20.26
27826;BMP280;15077;49.704;9.908;2023-08-06T09:29:20;97151.88;;;20.24
27826;BMP280;15077;49.704;9.908;2023-08-06T09:31:49;97143.50;;;20.22
27826;BMP280;15077;49.704;9.908;2023-08-06T09:34:23;97152.00;;;20.22
27826;BMP280;15077;49.704;9.908;2023-08-06T09:36:52;97155.25;;;20.24
27826;BMP280;15077;49.704;9.908;2023-08-06T09:39:21;97150.94;;;20.25
27826;BMP280;15077;49.704;9.908;2023-08-06T09:41:48;97154.16;;;20.27
27826;BMP280;15077;49.704;9.908;2023-08-06T09:44:19;97146.28;;;20.28
27826;BMP280;15077;49.704;9.908;2023-08-06T09:46:59;97147.13;;;20.29
27826;BMP280;15077;49.704;9.908;2023-08-06T09:52:00;97139.91;;;20.32
27826;BMP280;15077;49.704;9.908;2023-08-06T09:54:27;97128.41;;;20.36
27826;BMP280;15077;49.704;9.908;2023-08-06T09:56:57;97130.25;;;20.44
27826;BMP280;15077;49.704;9.908;2023-08-06T09:59:24;97125.47;;;20.48
27826;BMP280;15077;49.704;9.908;2023-08-06T10:01:50;97120.69;;;20.53
27826;BMP280;15077;49.704;9.908;2023-08-06T10:04:16;97118.63;;;20.57
27826;BMP280;15077;49.704;9.908;2023-08-06T10:06:49;97123.34;;;20.61
27826;BMP280;15077;49.704;9.908;2023-08-06T10:09:15;97112.75;;;20.64
27826;BMP280;15077;49.704;9.908;2023-08-06T10:11:43;97115.72;;;20.69
27826;BMP280;15077;49.704;9.908;2023-08-06T10:14:18;97108.34;;;20.57
27826;BMP280;15077;49.704;9.908;2023-08-06T10:16:46;97111.22;;;20.71
27826;BMP280;15077;49.704;9.908;2023-08-06T10:19:15;97109.69;;;20.78
27826;BMP280;15077;49.704;9.908;2023-08-06T10:22:11;97118.09;;;20.80
27826;BMP280;15077;49.704;9.908;2023-08-06T10:27:35;97113.16;;;20.87
27826;BMP280;15077;49.704;9.908;2023-08-06T10:32:59;97104.97;;;20.91
27826;BMP280;15077;49.704;9.908;2023-08-06T10:35:47;97082.97;;;20.96
27826;BMP280;15077;49.704;9.908;2023-08-06T10:38:25;97091.56;;;21.05
27826;BMP280;15077;49.704;9.908;2023-08-06T10:43:36;97084.25;;;21.18
27826;BMP280;15077;49.704;9.908;2023-08-06T10:46:23;97084.63;;;21.23
27826;BMP280;15077;49.704;9.908;2023-08-06T10:49:04;97085.94;;;21.27
27826;BMP280;15077;49.704;9.908;2023-08-06T10:51:30;97083.72;;;21.32
27826;BMP280;15077;49.704;9.908;2023-08-06T10:53:56;97077.13;;;21.37
27826;BMP280;15077;49.704;9.908;2023-08-06T10:56:25;97073.81;;;21.44
27826;BMP280;15077;49.704;9.908;2023-08-06T10:58:56;97080.66;;;21.53
27826;BMP280;15077;49.704;9.908;2023-08-06T11:01:23;97075.09;;;21.66
27826;BMP280;15077;49.704;9.908;2023-08-06T11:03:50;97079.50;;;21.73
27826;BMP280;15077;49.704;9.908;2023-08-06T11:06:20;97076.94;;;21.81
27826;BMP280;15077;49.704;9.908;2023-08-06T11:08:54;97076.31;;;21.87
27826;BMP280;15077;49.704;9.908;2023-08-06T11:11:22;97074.91;;;21.92
27826;BMP280;15077;49.704;9.908;2023-08-06T11:13:58;97069.25;;;21.97
27826;BMP280;15077;49.704;9.908;2023-08-06T11:16:25;97069.59;;;22.02
27826;BMP280;15077;49.704;9.908;2023-08-06T11:18:51;97072.53;;;22.07
27826;BMP280;15077;49.704;9.908;2023-08-06T11:21:22;97068.66;;;22.11
27826;BMP280;15077;49.704;9.908;2023-08-06T11:23:48;97059.97;;;22.12
27826;BMP280;15077;49.704;9.908;2023-08-06T11:26:20;97065.94;;;22.12
27826;BMP280;15077;49.704;9.908;2023-08-06T11:28:47;97072.38;;;22.08
27826;BMP280;15077;49.704;9.908;2023-08-06T11:31:21;97064.94;;;22.05
27826;BMP280;15077;49.704;9.908;2023-08-06T11:33:47;97065.25;;;22.02
27826;BMP280;15077;49.704;9.908;2023-08-06T11:36:12;97068.97;;;22.00
27826;BMP280;15077;49.704;9.908;2023-08-06T11:38:38;97064.75;;;21.99
27826;BMP280;15077;49.704;9.908;2023-08-06T11:41:06;97064.91;;;21.97
27826;BMP280;15077;49.704;9.908;2023-08-06T11:43:32;97060.88;;;21.95
27826;BMP280;15077;49.704;9.908;2023-08-06T11:45:58;97052.84;;;21.98
27826;BMP280;15077;49.704;9.908;2023-08-06T11:48:25;97056.22;;;21.98
27826;BMP280;15077;49.704;9.908;2023-08-06T11:50:54;97057.00;;;21.99
27826;BMP280;15077;49.704;9.908;2023-08-06T11:53:21;97061.06;;;22.01
27826;BMP280;15077;49.704;9.908;2023-08-06T11:55:47;97046.06;;;22.05
27826;BMP280;15077;49.704;9.908;2023-08-06T11:58:17;97046.09;;;22.13
27826;BMP280;15077;49.704;9.908;2023-08-06T12:00:43;97058.38;;;22.19
27826;BMP280;15077;49.704;9.908;2023-08-06T12:03:22;97057.41;;;22.20
27826;BMP280;15077;49.704;9.908;2023-08-06T12:05:54;97062.31;;;22.23
27826;BMP280;15077;49.704;9.908;2023-08-06T12:08:19;97055.50;;;22.22
27826;BMP280;15077;49.704;9.908;2023-08-06T12:10:46;97066.44;;;22.16
27826;BMP280;15077;49.704;9.908;2023-08-06T12:13:21;97076.56;;;22.09
27826;BMP280;15077;49.704;9.908;2023-08-06T12:16:02;97069.44;;;21.95
27826;BMP280;15077;49.704;9.908;2023-08-06T12:18:28;97079.56;;;21.89
27826;BMP280;15077;49.704;9.908;2023-08-06T12:20:54;97092.72;;;21.78
27826;BMP280;15077;49.704;9.908;2023-08-06T12:23:53;97077.78;;;21.56
27826;BMP280;15077;49.704;9.908;2023-08-06T12:26:19;97080.00;;;21.51
27826;BMP280;15077;49.704;9.908;2023-08-06T12:28:45;97079.13;;;21.43
27826;BMP280;15077;49.704;9.908;2023-08-06T12:31:10;97082.28;;;21.37
27826;BMP280;15077;49.704;9.908;2023-08-06T12:33:36;97081.81;;;21.34
27826;BMP280;15077;49.704;9.908;2023-08-06T12:36:02;97076.94;;;21.31
27826;BMP280;15077;49.704;9.908;2023-08-06T12:38:28;97074.06;;;21.34
27826;BMP280;15077;49.704;9.908;2023-08-06T12:40:58;97079.88;;;21.36
27826;BMP280;15077;49.704;9.908;2023-08-06T12:43:24;97088.28;;;21.38
27826;BMP280;15077;49.704;9.908;2023-08-06T12:45:59;97085.56;;;21.39
27826;BMP280;15077;49.704;9.908;2023-08-06T12:48:24;97092.47;;;21.39
27826;BMP280;15077;49.704;9.908;2023-08-06T12:50:50;97094.53;;;21.35
27826;BMP280;15077;49.704;9.908;2023-08-06T12:53:25;97094.50;;;21.27
27826;BMP280;15077;49.704;9.908;2023-08-06T12:55:50;97097.94;;;21.18
27826;BMP280;15077;49.704;9.908;2023-08-06T12:58:16;97111.28;;;21.14
27826;BMP280;15077;49.704;9.908;2023-08-06T13:00:42;97117.84;;;21.08
27826;BMP280;15077;49.704;9.908;2023-08-06T13:03:07;97107.84;;;21.05
27826;BMP280;15077;49.704;9.908;2023-08-06T13:06:07;97117.56;;;20.94
27826;BMP280;15077;49.704;9.908;2023-08-06T13:08:35;97125.16;;;20.95
27826;BMP280;15077;49.704;9.908;2023-08-06T13:11:32;97138.13;;;20.86
27826;BMP280;15077;49.704;9.908;2023-08-06T13:14:13;97140.00;;;20.84
27826;BMP280;15077;49.704;9.908;2023-08-06T13:16:42;97143.84;;;20.80
27826;BMP280;15077;49.704;9.908;2023-08-06T13:19:09;97148.47;;;20.77
27826;BMP280;15077;49.704;9.908;2023-08-06T13:24:07;97151.91;;;20.68
27826;BMP280;15077;49.704;9.908;2023-08-06T13:26:33;97156.38;;;20.66
27826;BMP280;15077;49.704;9.908;2023-08-06T13:29:00;97167.25;;;20.60
27826;BMP280;15077;49.704;9.908;2023-08-06T13:31:40;97172.44;;;20.50
27826;BMP280;15077;49.704;9.908;2023-08-06T13:34:17;97184.56;;;20.41
27826;BMP280;15077;49.704;9.908;2023-08-06T13:36:43;97182.88;;;20.32
27826;BMP280;15077;49.704;9.908;2023-08-06T13:39:10;97185.03;;;20.27
27826;BMP280;15077;49.704;9.908;2023-08-06T13:41:37;97183.69;;;20.23
27826;BMP280;15077;49.704;9.908;2023-08-06T13:44:04;97188.97;;;20.21
27826;BMP280;15077;49.704;9.908;2023-08-06T13:46:29;97196.19;;;20.18
27826;BMP280;15077;49.704;9.908;2023-08-06T13:48:55;97193.22;;;20.13
27826;BMP280;15077;49.704;9.908;2023-08-06T13:51:21;97206.53;;;20.08
27826;BMP280;15077;49.704;9.908;2023-08-06T13:53:56;97205.97;;;20.05
27826;BMP280;15077;49.704;9.908;2023-08-06T13:56:31;97208.03;;;20.01
27826;BMP280;15077;49.704;9.908;2023-08-06T13:59:16;97213.31;;;20.00
27826;BMP280;15077;49.704;9.908;2023-08-06T14:01:44;97215.22;;;19.98
27826;BMP280;15077;49.704;9.908;2023-08-06T14:04:10;97218.72;;;19.97
27826;BMP280;15077;49.704;9.908;2023-08-06T14:06:35;97220.38;;;19.98
27826;BMP280;15077;49.704;9.908;2023-08-06T14:09:01;97224.69;;;19.97
27826;BMP280;15077;49.704;9.908;2023-08-06T14:11:30;97214.53;;;19.96
27826;BMP280;15077;49.704;9.908;2023-08-06T14:13:56;97215.50;;;19.95
27826;BMP280;15077;49.704;9.908;2023-08-06T14:16:21;97225.78;;;19.95
27826;BMP280;15077;49.704;9.908;2023-08-06T14:18:48;97228.63;;;19.92
27826;BMP280;15077;49.704;9.908;2023-08-06T14:21:13;97238.38;;;19.89
27826;BMP280;15077;49.704;9.908;2023-08-06T14:23:40;97226.72;;;19.85
27826;BMP280;15077;49.704;9.908;2023-08-06T14:26:07;97230.09;;;19.85
27826;BMP280;15077;49.704;9.908;2023-08-06T14:28:33;97234.44;;;19.85
27826;BMP280;15077;49.704;9.908;2023-08-06T14:31:24;97243.25;;;19.82
27826;BMP280;15077;49.704;9.908;2023-08-06T14:33:50;97259.31;;;19.84